sensor_id;sensor_type;location;lat;lon;timestamp;temperature;humidity
6986;DHT22;3533;51.246;6.850;2023-05-16T00:01:15;20.50;49.30
6986;DHT22;3533;51.246;6.850;2023-05-16T00:03:41;20.50;49.30
6986;DHT22;3533;51.246;6.850;2023-05-16T00:06:07;20.50;49.30
6986;DHT22;3533;51.246;6.850;2023-05-16T00:08:33;20.50;49.30
6986;DHT22;3533;51.246;6.850;2023-05-16T00:10:59;20.50;49.30
6986;DHT22;3533;51.246;6.850;2023-05-16T00:13:25;20.50;49.30
6986;DHT22;3533;51.246;6.850;2023-05-16T00:15:52;20.50;49.30
6986;DHT22;3533;51.246;6.850;2023-05-16T00:18:19;20.50;49.30
6986;DHT22;3533;51.246;6.850;2023-05-16T00:20:47;20.50;49.30
6986;DHT22;3533;51.246;6.850;2023-05-16T00:23:13;20.50;49.30
6986;DHT22;3533;51.246;6.850;2023-05-16T00:25:38;20.50;49.30
6986;DHT22;3533;51.246;6.850;2023-05-16T00:28:05;20.50;49.30
6986;DHT22;3533;51.246;6.850;2023-05-16T00:30:31;20.50;49.20
6986;DHT22;3533;51.246;6.850;2023-05-16T00:32:56;20.50;49.30
6986;DHT22;3533;51.246;6.850;2023-05-16T00:35:22;20.50;49.20
6986;DHT22;3533;51.246;6.850;2023-05-16T00:37:49;20.50;49.30
6986;DHT22;3533;51.246;6.850;2023-05-16T00:40:15;20.50;49.20
6986;DHT22;3533;51.246;6.850;2023-05-16T00:42:41;20.50;49.20
6986;DHT22;3533;51.246;6.850;2023-05-16T00:45:07;20.50;49.20
6986;DHT22;3533;51.246;6.850;2023-05-16T00:47:34;20.50;49.20
6986;DHT22;3533;51.246;6.850;2023-05-16T00:50:00;20.50;49.20
6986;DHT22;3533;51.246;6.850;2023-05-16T00:52:25;20.50;49.20
6986;DHT22;3533;51.246;6.850;2023-05-16T00:54:51;20.50;49.20
6986;DHT22;3533;51.246;6.850;2023-05-16T00:57:17;20.50;49.20
6986;DHT22;3533;51.246;6.850;2023-05-16T00:59:44;20.50;49.10
6986;DHT22;3533;51.246;6.850;2023-05-16T01:02:10;20.50;49.20
6986;DHT22;3533;51.246;6.850;2023-05-16T01:04:37;20.50;49.10
6986;DHT22;3533;51.246;6.850;2023-05-16T01:07:03;20.50;49.20
6986;DHT22;3533;51.246;6.850;2023-05-16T01:09:29;20.50;49.10
6986;DHT22;3533;51.246;6.850;2023-05-16T01:12:05;20.50;49.20
6986;DHT22;3533;51.246;6.850;2023-05-16T01:17:37;20.40;49.00
6986;DHT22;3533;51.246;6.850;2023-05-16T01:20:36;20.40;49.00
6986;DHT22;3533;51.246;6.850;2023-05-16T01:26:20;20.40;49.10
6986;DHT22;3533;51.246;6.850;2023-05-16T01:28:47;20.40;49.00
6986;DHT22;3533;51.246;6.850;2023-05-16T01:31:13;20.50;49.20
6986;DHT22;3533;51.246;6.850;2023-05-16T01:33:38;20.40;49.10
6986;DHT22;3533;51.246;6.850;2023-05-16T01:36:33;20.40;49.10
6986;DHT22;3533;51.246;6.850;2023-05-16T01:39:10;20.40;49.20
6986;DHT22;3533;51.246;6.850;2023-05-16T01:42:07;20.40;49.10
6986;DHT22;3533;51.246;6.850;2023-05-16T01:44:45;20.50;49.10
6986;DHT22;3533;51.246;6.850;2023-05-16T01:47:16;20.50;49.10
6986;DHT22;3533;51.246;6.850;2023-05-16T01:52:33;20.40;49.00
6986;DHT22;3533;51.246;6.850;2023-05-16T01:55:01;20.50;49.10
6986;DHT22;3533;51.246;6.850;2023-05-16T01:57:28;20.40;49.00
6986;DHT22;3533;51.246;6.850;2023-05-16T01:59:54;20.40;49.00
6986;DHT22;3533;51.246;6.850;2023-05-16T02:02:20;20.50;49.10
6986;DHT22;3533;51.246;6.850;2023-05-16T02:04:46;20.50;49.20
6986;DHT22;3533;51.246;6.850;2023-05-16T02:07:12;20.40;48.90
6986;DHT22;3533;51.246;6.850;2023-05-16T02:09:39;20.40;49.00
6986;DHT22;3533;51.246;6.850;2023-05-16T02:12:05;20.40;49.00
6986;DHT22;3533;51.246;6.850;2023-05-16T02:14:30;20.40;49.00
6986;DHT22;3533;51.246;6.850;2023-05-16T02:16:56;20.40;49.10
6986;DHT22;3533;51.246;6.850;2023-05-16T02:19:22;20.40;49.00
6986;DHT22;3533;51.246;6.850;2023-05-16T02:21:47;20.40;49.00
6986;DHT22;3533;51.246;6.850;2023-05-16T02:24:13;20.40;49.00
6986;DHT22;3533;51.246;6.850;2023-05-16T02:26:38;20.40;49.00
6986;DHT22;3533;51.246;6.850;2023-05-16T02:29:04;20.40;49.00
6986;DHT22;3533;51.246;6.850;2023-05-16T02:31:31;20.40;49.00
6986;DHT22;3533;51.246;6.850;2023-05-16T02:33:57;20.40;49.00
6986;DHT22;3533;51.246;6.850;2023-05-16T02:36:23;20.40;49.00
6986;DHT22;3533;51.246;6.850;2023-05-16T02:38:49;20.40;49.00
6986;DHT22;3533;51.246;6.850;2023-05-16T02:41:14;20.40;49.00
6986;DHT22;3533;51.246;6.850;2023-05-16T02:43:40;20.40;49.00
6986;DHT22;3533;51.246;6.850;2023-05-16T02:46:29;20.40;49.00
6986;DHT22;3533;51.246;6.850;2023-05-16T02:48:55;20.40;48.90
6986;DHT22;3533;51.246;6.850;2023-05-16T02:51:23;20.40;49.00
6986;DHT22;3533;51.246;6.850;2023-05-16T02:53:50;20.40;48.90
6986;DHT22;3533;51.246;6.850;2023-05-16T02:56:16;20.40;49.00
6986;DHT22;3533;51.246;6.850;2023-05-16T02:58:42;20.40;48.90
6986;DHT22;3533;51.246;6.850;2023-05-16T03:01:08;20.40;48.90
6986;DHT22;3533;51.246;6.850;2023-05-16T03:03:35;20.40;48.90
6986;DHT22;3533;51.246;6.850;2023-05-16T03:06:01;20.40;48.90
6986;DHT22;3533;51.246;6.850;2023-05-16T03:08:27;20.40;48.90
6986;DHT22;3533;51.246;6.850;2023-05-16T03:10:52;20.40;48.90
6986;DHT22;3533;51.246;6.850;2023-05-16T03:13:18;20.40;48.90
6986;DHT22;3533;51.246;6.850;2023-05-16T03:15:44;20.40;48.90
6986;DHT22;3533;51.246;6.850;2023-05-16T03:18:10;20.40;48.90
6986;DHT22;3533;51.246;6.850;2023-05-16T03:20:37;20.40;48.90
6986;DHT22;3533;51.246;6.850;2023-05-16T03:23:02;20.40;48.80
6986;DHT22;3533;51.246;6.850;2023-05-16T03:25:32;20.40;48.90
6986;DHT22;3533;51.246;6.850;2023-05-16T03:27:57;20.40;48.80
6986;DHT22;3533;51.246;6.850;2023-05-16T03:30:23;20.40;48.80
6986;DHT22;3533;51.246;6.850;2023-05-16T03:32:50;20.40;48.80
6986;DHT22;3533;51.246;6.850;2023-05-16T03:35:16;20.40;48.80
6986;DHT22;3533;51.246;6.850;2023-05-16T03:37:41;20.40;48.90
6986;DHT22;3533;51.246;6.850;2023-05-16T03:40:08;20.40;48.80
6986;DHT22;3533;51.246;6.850;2023-05-16T03:42:33;20.40;48.80
6986;DHT22;3533;51.246;6.850;2023-05-16T03:44:59;20.40;48.80
6986;DHT22;3533;51.246;6.850;2023-05-16T03:47:24;20.40;48.70
6986;DHT22;3533;51.246;6.850;2023-05-16T03:49:50;20.40;48.70
6986;DHT22;3533;51.246;6.850;2023-05-16T03:52:17;20.40;48.70
6986;DHT22;3533;51.246;6.850;2023-05-16T03:54:43;20.40;48.70
6986;DHT22;3533;51.246;6.850;2023-05-16T03:57:08;20.40;48.70
6986;DHT22;3533;51.246;6.850;2023-05-16T03:59:34;20.40;48.70
6986;DHT22;3533;51.246;6.850;2023-05-16T04:02:00;20.40;48.70
6986;DHT22;3533;51.246;6.850;2023-05-16T04:04:26;20.40;48.70
6986;DHT22;3533;51.246;6.850;2023-05-16T04:06:51;20.40;48.60
6986;DHT22;3533;51.246;6.850;2023-05-16T04:09:16;20.40;48.60
6986;DHT22;3533;51.246;6.850;2023-05-16T04:11:42;20.40;48.50
6986;DHT22;3533;51.246;6.850;2023-05-16T04:14:08;20.40;48.50
6986;DHT22;3533;51.246;6.850;2023-05-16T04:16:34;20.50;48.60
6986;DHT22;3533;51.246;6.850;2023-05-16T04:19:00;20.40;48.40
6986;DHT22;3533;51.246;6.850;2023-05-16T04:21:25;20.40;48.50
6986;DHT22;3533;51.246;6.850;2023-05-16T04:23:51;20.50;48.50
6986;DHT22;3533;51.246;6.850;2023-05-16T04:26:16;20.40;48.40
6986;DHT22;3533;51.246;6.850;2023-05-16T04:28:42;20.40;48.40
6986;DHT22;3533;51.246;6.850;2023-05-16T04:31:07;20.40;48.20
6986;DHT22;3533;51.246;6.850;2023-05-16T04:33:33;20.40;48.20
6986;DHT22;3533;51.246;6.850;2023-05-16T04:35:59;20.40;48.10
6986;DHT22;3533;51.246;6.850;2023-05-16T04:38:25;20.40;48.00
6986;DHT22;3533;51.246;6.850;2023-05-16T04:40:50;20.50;48.00
6986;DHT22;3533;51.246;6.850;2023-05-16T04:43:17;20.50;47.90
6986;DHT22;3533;51.246;6.850;2023-05-16T04:45:43;20.50;47.80
6986;DHT22;3533;51.246;6.850;2023-05-16T04:48:09;20.40;47.70
6986;DHT22;3533;51.246;6.850;2023-05-16T04:50:34;20.50;47.80
6986;DHT22;3533;51.246;6.850;2023-05-16T04:53:00;20.40;47.70
6986;DHT22;3533;51.246;6.850;2023-05-16T04:55:26;20.40;47.70
6986;DHT22;3533;51.246;6.850;2023-05-16T04:57:51;20.50;47.80
6986;DHT22;3533;51.246;6.850;2023-05-16T05:00:17;20.50;47.80
6986;DHT22;3533;51.246;6.850;2023-05-16T05:02:42;20.50;47.80
6986;DHT22;3533;51.246;6.850;2023-05-16T05:05:09;20.50;47.90
6986;DHT22;3533;51.246;6.850;2023-05-16T05:07:34;20.50;47.80
6986;DHT22;3533;51.246;6.850;2023-05-16T05:10:00;20.50;47.80
6986;DHT22;3533;51.246;6.850;2023-05-16T05:12:26;20.50;47.90
6986;DHT22;3533;51.246;6.850;2023-05-16T05:14:52;20.40;47.80
6986;DHT22;3533;51.246;6.850;2023-05-16T05:17:19;20.50;47.90
6986;DHT22;3533;51.246;6.850;2023-05-16T05:19:45;20.50;47.90
6986;DHT22;3533;51.246;6.850;2023-05-16T05:22:11;20.40;47.90
6986;DHT22;3533;51.246;6.850;2023-05-16T05:24:37;20.40;47.80
6986;DHT22;3533;51.246;6.850;2023-05-16T05:27:02;20.50;47.90
6986;DHT22;3533;51.246;6.850;2023-05-16T05:29:28;20.50;47.80
6986;DHT22;3533;51.246;6.850;2023-05-16T05:31:54;20.50;47.80
6986;DHT22;3533;51.246;6.850;2023-05-16T05:34:19;20.50;47.80
6986;DHT22;3533;51.246;6.850;2023-05-16T05:36:45;20.50;47.80
6986;DHT22;3533;51.246;6.850;2023-05-16T05:39:11;20.50;47.90
6986;DHT22;3533;51.246;6.850;2023-05-16T05:41:36;20.50;47.90
6986;DHT22;3533;51.246;6.850;2023-05-16T05:44:02;20.50;47.90
6986;DHT22;3533;51.246;6.850;2023-05-16T05:46:28;20.50;47.90
6986;DHT22;3533;51.246;6.850;2023-05-16T05:48:53;20.50;47.90
6986;DHT22;3533;51.246;6.850;2023-05-16T05:51:19;20.50;47.90
6986;DHT22;3533;51.246;6.850;2023-05-16T05:53:45;20.50;47.90
6986;DHT22;3533;51.246;6.850;2023-05-16T05:56:11;20.50;47.90
6986;DHT22;3533;51.246;6.850;2023-05-16T05:58:38;20.50;47.90
6986;DHT22;3533;51.246;6.850;2023-05-16T06:01:06;20.50;48.00
6986;DHT22;3533;51.246;6.850;2023-05-16T06:03:31;20.50;47.90
6986;DHT22;3533;51.246;6.850;2023-05-16T06:05:57;20.50;48.00
6986;DHT22;3533;51.246;6.850;2023-05-16T06:08:22;20.50;48.00
6986;DHT22;3533;51.246;6.850;2023-05-16T06:10:48;20.50;48.00
6986;DHT22;3533;51.246;6.850;2023-05-16T06:13:13;20.50;48.00
6986;DHT22;3533;51.246;6.850;2023-05-16T06:15:39;20.50;48.00
6986;DHT22;3533;51.246;6.850;2023-05-16T06:18:05;20.50;48.00
6986;DHT22;3533;51.246;6.850;2023-05-16T06:20:30;20.50;48.00
6986;DHT22;3533;51.246;6.850;2023-05-16T06:22:56;20.50;48.00
6986;DHT22;3533;51.246;6.850;2023-05-16T06:25:21;20.50;48.00
6986;DHT22;3533;51.246;6.850;2023-05-16T06:27:47;20.50;48.00
6986;DHT22;3533;51.246;6.850;2023-05-16T06:30:12;20.50;48.00
6986;DHT22;3533;51.246;6.850;2023-05-16T06:32:38;20.50;48.10
6986;DHT22;3533;51.246;6.850;2023-05-16T06:35:05;20.50;48.00
6986;DHT22;3533;51.246;6.850;2023-05-16T06:37:31;20.50;48.10
6986;DHT22;3533;51.246;6.850;2023-05-16T06:39:57;20.50;48.00
6986;DHT22;3533;51.246;6.850;2023-05-16T06:42:23;20.50;48.00
6986;DHT22;3533;51.246;6.850;2023-05-16T06:44:49;20.50;48.00
6986;DHT22;3533;51.246;6.850;2023-05-16T06:47:14;20.50;48.00
6986;DHT22;3533;51.246;6.850;2023-05-16T06:49:40;20.50;48.10
6986;DHT22;3533;51.246;6.850;2023-05-16T06:52:05;20.50;48.00
6986;DHT22;3533;51.246;6.850;2023-05-16T06:54:31;20.50;48.10
6986;DHT22;3533;51.246;6.850;2023-05-16T06:56:56;20.50;48.00
6986;DHT22;3533;51.246;6.850;2023-05-16T06:59:22;20.50;48.00
6986;DHT22;3533;51.246;6.850;2023-05-16T07:01:48;20.50;48.10
6986;DHT22;3533;51.246;6.850;2023-05-16T07:04:13;20.50;48.00
6986;DHT22;3533;51.246;6.850;2023-05-16T07:06:39;20.50;48.10
6986;DHT22;3533;51.246;6.850;2023-05-16T07:09:05;20.50;48.00
6986;DHT22;3533;51.246;6.850;2023-05-16T07:11:31;20.50;48.10
6986;DHT22;3533;51.246;6.850;2023-05-16T07:13:57;20.50;48.00
6986;DHT22;3533;51.246;6.850;2023-05-16T07:16:22;20.50;48.10
6986;DHT22;3533;51.246;6.850;2023-05-16T07:18:48;20.50;48.10
6986;DHT22;3533;51.246;6.850;2023-05-16T07:21:14;20.50;48.00
6986;DHT22;3533;51.246;6.850;2023-05-16T07:23:39;20.50;48.00
6986;DHT22;3533;51.246;6.850;2023-05-16T07:26:05;20.50;48.00
6986;DHT22;3533;51.246;6.850;2023-05-16T07:28:31;20.50;48.00
6986;DHT22;3533;51.246;6.850;2023-05-16T07:30:56;20.50;48.00
6986;DHT22;3533;51.246;6.850;2023-05-16T07:33:23;20.50;48.00
6986;DHT22;3533;51.246;6.850;2023-05-16T07:35:49;20.50;48.00
6986;DHT22;3533;51.246;6.850;2023-05-16T07:38:15;20.50;48.00
6986;DHT22;3533;51.246;6.850;2023-05-16T07:40:41;20.50;48.00
6986;DHT22;3533;51.246;6.850;2023-05-16T07:43:06;20.50;48.00
6986;DHT22;3533;51.246;6.850;2023-05-16T07:45:32;20.50;48.00
6986;DHT22;3533;51.246;6.850;2023-05-16T07:47:58;20.50;47.90
6986;DHT22;3533;51.246;6.850;2023-05-16T07:50:24;20.50;47.90
6986;DHT22;3533;51.246;6.850;2023-05-16T07:52:50;20.50;48.70
6986;DHT22;3533;51.246;6.850;2023-05-16T07:55:16;20.50;47.90
6986;DHT22;3533;51.246;6.850;2023-05-16T07:57:42;20.50;47.90
6986;DHT22;3533;51.246;6.850;2023-05-16T08:00:08;20.60;48.00
6986;DHT22;3533;51.246;6.850;2023-05-16T08:02:34;20.50;47.90
6986;DHT22;3533;51.246;6.850;2023-05-16T08:05:00;20.60;48.00
6986;DHT22;3533;51.246;6.850;2023-05-16T08:07:25;20.60;48.00
6986;DHT22;3533;51.246;6.850;2023-05-16T08:09:51;20.60;48.70
6986;DHT22;3533;51.246;6.850;2023-05-16T08:12:17;20.50;47.80
6986;DHT22;3533;51.246;6.850;2023-05-16T08:14:42;20.60;47.90
6986;DHT22;3533;51.246;6.850;2023-05-16T08:17:08;20.50;47.80
6986;DHT22;3533;51.246;6.850;2023-05-16T08:19:34;20.50;47.80
6986;DHT22;3533;51.246;6.850;2023-05-16T08:22:00;20.50;47.80
6986;DHT22;3533;51.246;6.850;2023-05-16T08:24:25;20.60;47.80
6986;DHT22;3533;51.246;6.850;2023-05-16T08:26:51;20.60;47.80
6986;DHT22;3533;51.246;6.850;2023-05-16T08:29:16;20.60;47.80
6986;DHT22;3533;51.246;6.850;2023-05-16T08:31:42;20.60;47.80
6986;DHT22;3533;51.246;6.850;2023-05-16T08:34:08;20.60;47.70
6986;DHT22;3533;51.246;6.850;2023-05-16T08:36:35;20.50;47.70
6986;DHT22;3533;51.246;6.850;2023-05-16T08:39:00;20.60;47.70
6986;DHT22;3533;51.246;6.850;2023-05-16T08:41:26;20.60;47.70
6986;DHT22;3533;51.246;6.850;2023-05-16T08:43:52;20.60;47.70
6986;DHT22;3533;51.246;6.850;2023-05-16T08:46:21;20.60;47.70
6986;DHT22;3533;51.246;6.850;2023-05-16T08:48:50;20.60;47.70
6986;DHT22;3533;51.246;6.850;2023-05-16T08:51:18;20.60;47.60
6986;DHT22;3533;51.246;6.850;2023-05-16T08:53:49;20.60;47.60
6986;DHT22;3533;51.246;6.850;2023-05-16T08:56:16;20.60;47.60
6986;DHT22;3533;51.246;6.850;2023-05-16T08:58:43;20.60;47.60
6986;DHT22;3533;51.246;6.850;2023-05-16T09:01:09;20.60;47.60
6986;DHT22;3533;51.246;6.850;2023-05-16T09:03:36;20.60;47.50
6986;DHT22;3533;51.246;6.850;2023-05-16T09:06:04;20.60;47.50
6986;DHT22;3533;51.246;6.850;2023-05-16T09:08:30;20.60;47.50
6986;DHT22;3533;51.246;6.850;2023-05-16T09:10:56;20.60;47.50
6986;DHT22;3533;51.246;6.850;2023-05-16T09:13:23;20.60;47.50
6986;DHT22;3533;51.246;6.850;2023-05-16T09:16:17;20.60;47.50
6986;DHT22;3533;51.246;6.850;2023-05-16T09:18:45;20.60;47.40
6986;DHT22;3533;51.246;6.850;2023-05-16T09:21:12;20.60;47.50
6986;DHT22;3533;51.246;6.850;2023-05-16T09:23:38;20.60;47.40
6986;DHT22;3533;51.246;6.850;2023-05-16T09:26:04;20.60;47.40
6986;DHT22;3533;51.246;6.850;2023-05-16T09:28:32;20.60;47.40
6986;DHT22;3533;51.246;6.850;2023-05-16T09:30:58;20.60;47.40
6986;DHT22;3533;51.246;6.850;2023-05-16T09:33:27;20.60;47.40
6986;DHT22;3533;51.246;6.850;2023-05-16T09:35:58;20.60;47.40
6986;DHT22;3533;51.246;6.850;2023-05-16T09:38:24;20.60;47.40
6986;DHT22;3533;51.246;6.850;2023-05-16T09:40:51;20.60;47.30
6986;DHT22;3533;51.246;6.850;2023-05-16T09:43:17;20.60;47.30
6986;DHT22;3533;51.246;6.850;2023-05-16T09:45:46;20.60;47.30
6986;DHT22;3533;51.246;6.850;2023-05-16T09:48:13;20.60;47.30
6986;DHT22;3533;51.246;6.850;2023-05-16T09:50:40;20.60;47.30
6986;DHT22;3533;51.246;6.850;2023-05-16T09:53:07;20.60;47.30
6986;DHT22;3533;51.246;6.850;2023-05-16T09:55:33;20.60;47.20
6986;DHT22;3533;51.246;6.850;2023-05-16T09:57:59;20.60;47.20
6986;DHT22;3533;51.246;6.850;2023-05-16T10:00:28;20.60;47.20
6986;DHT22;3533;51.246;6.850;2023-05-16T10:02:57;20.60;47.20
6986;DHT22;3533;51.246;6.850;2023-05-16T10:05:25;20.60;47.20
6986;DHT22;3533;51.246;6.850;2023-05-16T10:07:51;20.60;47.20
6986;DHT22;3533;51.246;6.850;2023-05-16T10:10:19;20.60;47.20
6986;DHT22;3533;51.246;6.850;2023-05-16T10:12:45;20.60;47.20
6986;DHT22;3533;51.246;6.850;2023-05-16T10:15:10;20.50;47.10
6986;DHT22;3533;51.246;6.850;2023-05-16T10:17:38;20.60;47.20
6986;DHT22;3533;51.246;6.850;2023-05-16T10:20:06;20.60;47.20
6986;DHT22;3533;51.246;6.850;2023-05-16T10:22:37;20.60;47.20
6986;DHT22;3533;51.246;6.850;2023-05-16T10:27:49;20.60;47.20
6986;DHT22;3533;51.246;6.850;2023-05-16T10:30:16;20.60;47.20
6986;DHT22;3533;51.246;6.850;2023-05-16T10:32:45;20.60;47.20
6986;DHT22;3533;51.246;6.850;2023-05-16T10:35:11;20.60;47.10
6986;DHT22;3533;51.246;6.850;2023-05-16T10:37:37;20.50;47.00
6986;DHT22;3533;51.246;6.850;2023-05-16T10:40:06;20.50;47.10
6986;DHT22;3533;51.246;6.850;2023-05-16T10:42:33;20.60;47.90
6986;DHT22;3533;51.246;6.850;2023-05-16T10:45:18;20.50;47.00
6986;DHT22;3533;51.246;6.850;2023-05-16T10:47:54;20.60;47.10
6986;DHT22;3533;51.246;6.850;2023-05-16T10:50:37;20.50;47.00
6986;DHT22;3533;51.246;6.850;2023-05-16T10:58:26;20.50;46.90
6986;DHT22;3533;51.246;6.850;2023-05-16T11:06:25;20.50;46.80
6986;DHT22;3533;51.246;6.850;2023-05-16T11:09:04;20.50;46.90
6986;DHT22;3533;51.246;6.850;2023-05-16T11:11:44;20.50;46.80
6986;DHT22;3533;51.246;6.850;2023-05-16T11:17:21;20.50;46.80
6986;DHT22;3533;51.246;6.850;2023-05-16T11:22:20;20.50;46.70
6986;DHT22;3533;51.246;6.850;2023-05-16T11:24:51;20.50;46.70
6986;DHT22;3533;51.246;6.850;2023-05-16T11:27:23;20.50;46.70
6986;DHT22;3533;51.246;6.850;2023-05-16T11:29:49;20.50;46.70
6986;DHT22;3533;51.246;6.850;2023-05-16T11:32:18;20.50;46.60
6986;DHT22;3533;51.246;6.850;2023-05-16T11:34:46;20.50;46.60
6986;DHT22;3533;51.246;6.850;2023-05-16T11:37:12;20.50;46.60
6986;DHT22;3533;51.246;6.850;2023-05-16T11:39:39;20.50;46.70
6986;DHT22;3533;51.246;6.850;2023-05-16T11:42:05;20.50;46.60
6986;DHT22;3533;51.246;6.850;2023-05-16T11:44:30;20.50;46.60
6986;DHT22;3533;51.246;6.850;2023-05-16T11:46:56;20.50;46.70
6986;DHT22;3533;51.246;6.850;2023-05-16T11:49:21;20.50;46.60
6986;DHT22;3533;51.246;6.850;2023-05-16T11:51:47;20.50;46.60
6986;DHT22;3533;51.246;6.850;2023-05-16T11:54:14;20.50;46.60
6986;DHT22;3533;51.246;6.850;2023-05-16T11:56:39;20.50;46.60
6986;DHT22;3533;51.246;6.850;2023-05-16T11:59:06;20.50;46.60
6986;DHT22;3533;51.246;6.850;2023-05-16T12:01:38;20.50;46.60
6986;DHT22;3533;51.246;6.850;2023-05-16T12:04:11;20.50;46.60
6986;DHT22;3533;51.246;6.850;2023-05-16T12:06:37;20.50;46.60
6986;DHT22;3533;51.246;6.850;2023-05-16T12:09:04;20.50;46.60
6986;DHT22;3533;51.246;6.850;2023-05-16T12:11:38;20.50;46.60
6986;DHT22;3533;51.246;6.850;2023-05-16T12:14:08;20.50;46.60
6986;DHT22;3533;51.246;6.850;2023-05-16T12:16:35;20.50;46.60
6986;DHT22;3533;51.246;6.850;2023-05-16T12:19:02;20.50;46.60
6986;DHT22;3533;51.246;6.850;2023-05-16T12:21:29;20.50;46.70
6986;DHT22;3533;51.246;6.850;2023-05-16T12:23:55;20.50;46.70
6986;DHT22;3533;51.246;6.850;2023-05-16T12:26:26;20.50;46.60
6986;DHT22;3533;51.246;6.850;2023-05-16T12:28:59;20.50;46.70
6986;DHT22;3533;51.246;6.850;2023-05-16T12:31:28;20.50;46.60
6986;DHT22;3533;51.246;6.850;2023-05-16T12:33:55;20.50;46.60
6986;DHT22;3533;51.246;6.850;2023-05-16T12:36:21;20.50;46.60
6986;DHT22;3533;51.246;6.850;2023-05-16T12:38:48;20.50;46.60
6986;DHT22;3533;51.246;6.850;2023-05-16T12:41:31;20.50;46.60
6986;DHT22;3533;51.246;6.850;2023-05-16T12:44:18;20.50;46.60
6986;DHT22;3533;51.246;6.850;2023-05-16T12:46:46;20.50;46.60
6986;DHT22;3533;51.246;6.850;2023-05-16T12:49:13;20.50;46.60
6986;DHT22;3533;51.246;6.850;2023-05-16T12:51:39;20.50;46.60
6986;DHT22;3533;51.246;6.850;2023-05-16T12:54:09;20.50;46.60
6986;DHT22;3533;51.246;6.850;2023-05-16T12:56:36;20.50;46.60
6986;DHT22;3533;51.246;6.850;2023-05-16T12:59:02;20.50;46.60
6986;DHT22;3533;51.246;6.850;2023-05-16T13:01:28;20.50;46.60
6986;DHT22;3533;51.246;6.850;2023-05-16T13:03:53;20.50;46.60
6986;DHT22;3533;51.246;6.850;2023-05-16T13:06:19;20.50;46.60
6986;DHT22;3533;51.246;6.850;2023-05-16T13:08:45;20.50;46.60
6986;DHT22;3533;51.246;6.850;2023-05-16T13:11:10;20.50;46.60
6986;DHT22;3533;51.246;6.850;2023-05-16T13:13:36;20.50;46.60
6986;DHT22;3533;51.246;6.850;2023-05-16T13:16:01;20.50;46.60
6986;DHT22;3533;51.246;6.850;2023-05-16T13:18:27;20.60;46.60
6986;DHT22;3533;51.246;6.850;2023-05-16T13:20:53;20.50;46.50
6986;DHT22;3533;51.246;6.850;2023-05-16T13:23:18;20.50;46.40
6986;DHT22;3533;51.246;6.850;2023-05-16T13:25:44;20.50;46.40
6986;DHT22;3533;51.246;6.850;2023-05-16T13:28:10;20.60;46.40
6986;DHT22;3533;51.246;6.850;2023-05-16T13:30:35;20.50;46.30
6986;DHT22;3533;51.246;6.850;2023-05-16T13:33:01;20.60;46.40
6986;DHT22;3533;51.246;6.850;2023-05-16T13:35:27;20.60;46.30
6986;DHT22;3533;51.246;6.850;2023-05-16T13:37:52;20.60;46.20
6986;DHT22;3533;51.246;6.850;2023-05-16T13:40:18;20.60;46.20
6986;DHT22;3533;51.246;6.850;2023-05-16T13:42:43;20.60;46.20
6986;DHT22;3533;51.246;6.850;2023-05-16T13:45:09;20.60;45.90
6986;DHT22;3533;51.246;6.850;2023-05-16T13:47:34;20.60;45.50
6986;DHT22;3533;51.246;6.850;2023-05-16T13:50:01;20.70;45.30
6986;DHT22;3533;51.246;6.850;2023-05-16T13:52:33;20.70;45.30
6986;DHT22;3533;51.246;6.850;2023-05-16T13:54:59;20.70;45.30
6986;DHT22;3533;51.246;6.850;2023-05-16T13:57:24;20.70;44.90
6986;DHT22;3533;51.246;6.850;2023-05-16T13:59:51;20.70;44.60
6986;DHT22;3533;51.246;6.850;2023-05-16T14:02:17;20.80;44.50
6986;DHT22;3533;51.246;6.850;2023-05-16T14:04:42;20.80;44.10
6986;DHT22;3533;51.246;6.850;2023-05-16T14:07:08;20.80;43.80
6986;DHT22;3533;51.246;6.850;2023-05-16T14:09:33;20.80;43.50
6986;DHT22;3533;51.246;6.850;2023-05-16T14:12:01;20.80;43.60
6986;DHT22;3533;51.246;6.850;2023-05-16T14:14:29;20.80;44.50
6986;DHT22;3533;51.246;6.850;2023-05-16T14:16:55;20.80;43.50
6986;DHT22;3533;51.246;6.850;2023-05-16T14:19:20;20.80;43.10
6986;DHT22;3533;51.246;6.850;2023-05-16T14:21:46;20.80;42.80
6986;DHT22;3533;51.246;6.850;2023-05-16T14:24:11;20.80;42.90
6986;DHT22;3533;51.246;6.850;2023-05-16T14:26:37;20.80;43.90
6986;DHT22;3533;51.246;6.850;2023-05-16T14:29:02;20.80;43.50
6986;DHT22;3533;51.246;6.850;2023-05-16T14:31:28;20.70;43.70
6986;DHT22;3533;51.246;6.850;2023-05-16T14:33:54;20.70;44.00
6986;DHT22;3533;51.246;6.850;2023-05-16T14:36:20;20.70;44.30
6986;DHT22;3533;51.246;6.850;2023-05-16T14:38:45;20.70;44.50
6986;DHT22;3533;51.246;6.850;2023-05-16T14:41:11;20.60;44.60
6986;DHT22;3533;51.246;6.850;2023-05-16T14:43:36;20.60;44.70
6986;DHT22;3533;51.246;6.850;2023-05-16T14:46:02;20.60;44.90
6986;DHT22;3533;51.246;6.850;2023-05-16T14:48:28;20.60;45.20
6986;DHT22;3533;51.246;6.850;2023-05-16T14:50:54;20.60;45.20
6986;DHT22;3533;51.246;6.850;2023-05-16T14:53:19;20.60;45.20
6986;DHT22;3533;51.246;6.850;2023-05-16T14:55:46;20.60;45.20
6986;DHT22;3533;51.246;6.850;2023-05-16T14:58:11;20.60;45.30
6986;DHT22;3533;51.246;6.850;2023-05-16T15:00:37;20.60;45.20
6986;DHT22;3533;51.246;6.850;2023-05-16T15:03:02;20.60;45.20
6986;DHT22;3533;51.246;6.850;2023-05-16T15:05:28;20.60;45.20
6986;DHT22;3533;51.246;6.850;2023-05-16T15:07:54;20.60;45.20
6986;DHT22;3533;51.246;6.850;2023-05-16T15:10:19;20.60;45.20
6986;DHT22;3533;51.246;6.850;2023-05-16T15:12:45;20.60;45.20
6986;DHT22;3533;51.246;6.850;2023-05-16T15:15:11;20.60;45.20
6986;DHT22;3533;51.246;6.850;2023-05-16T15:17:37;20.60;45.20
6986;DHT22;3533;51.246;6.850;2023-05-16T15:20:05;20.60;45.20
6986;DHT22;3533;51.246;6.850;2023-05-16T15:22:31;20.50;45.10
6986;DHT22;3533;51.246;6.850;2023-05-16T15:24:57;20.50;45.10
6986;DHT22;3533;51.246;6.850;2023-05-16T15:27:22;20.60;46.00
6986;DHT22;3533;51.246;6.850;2023-05-16T15:29:48;20.60;45.30
6986;DHT22;3533;51.246;6.850;2023-05-16T15:32:13;20.50;45.10
6986;DHT22;3533;51.246;6.850;2023-05-16T15:34:39;20.50;45.10
6986;DHT22;3533;51.246;6.850;2023-05-16T15:37:05;20.50;45.10
6986;DHT22;3533;51.246;6.850;2023-05-16T15:39:31;20.50;45.10
6986;DHT22;3533;51.246;6.850;2023-05-16T15:41:56;20.50;45.10
6986;DHT22;3533;51.246;6.850;2023-05-16T15:44:22;20.50;45.10
6986;DHT22;3533;51.246;6.850;2023-05-16T15:46:47;20.60;45.20
6986;DHT22;3533;51.246;6.850;2023-05-16T15:49:12;20.50;45.10
6986;DHT22;3533;51.246;6.850;2023-05-16T15:51:38;20.60;45.20
6986;DHT22;3533;51.246;6.850;2023-05-16T15:54:04;20.60;45.20
6986;DHT22;3533;51.246;6.850;2023-05-16T15:56:29;20.50;45.10
6986;DHT22;3533;51.246;6.850;2023-05-16T15:58:55;20.50;45.10
6986;DHT22;3533;51.246;6.850;2023-05-16T16:01:21;20.60;45.20
6986;DHT22;3533;51.246;6.850;2023-05-16T16:03:46;20.60;45.20
6986;DHT22;3533;51.246;6.850;2023-05-16T16:06:12;20.60;45.20
6986;DHT22;3533;51.246;6.850;2023-05-16T16:08:37;20.60;45.20
6986;DHT22;3533;51.246;6.850;2023-05-16T16:11:03;20.60;45.20
6986;DHT22;3533;51.246;6.850;2023-05-16T16:13:29;20.60;45.20
6986;DHT22;3533;51.246;6.850;2023-05-16T16:15:55;20.60;45.20
6986;DHT22;3533;51.246;6.850;2023-05-16T16:18:21;20.60;46.00
6986;DHT22;3533;51.246;6.850;2023-05-16T16:20:47;20.60;45.20
6986;DHT22;3533;51.246;6.850;2023-05-16T16:23:12;20.60;45.20
6986;DHT22;3533;51.246;6.850;2023-05-16T16:25:38;20.60;45.20
6986;DHT22;3533;51.246;6.850;2023-05-16T16:28:03;20.60;45.20